createdAt,value
2018-07-04T00:00:20.677Z,18.55
2018-07-04T00:03:00.991Z,18.55
2018-07-04T00:05:40.563Z,18.59
2018-07-04T00:08:20.632Z,18.61
2018-07-04T00:11:01.375Z,18.62
2018-07-04T00:13:41.619Z,18.60
2018-07-04T00:16:22.052Z,18.53
2018-07-04T00:19:01.627Z,18.45
2018-07-04T00:21:42.342Z,18.40
2018-07-04T00:24:22.047Z,18.32
2018-07-04T00:27:02.106Z,18.29
2018-07-04T00:29:42.277Z,18.29
2018-07-04T00:32:22.529Z,18.21
2018-07-04T00:35:03.339Z,18.20
2018-07-04T00:37:42.881Z,18.22
2018-07-04T00:40:23.257Z,18.21
2018-07-04T00:43:04.029Z,18.25
2018-07-04T00:45:43.461Z,18.27
2018-07-04T00:48:24.271Z,18.30
2018-07-04T00:51:03.917Z,18.26
2018-07-04T00:53:44.597Z,18.27
2018-07-04T00:56:24.227Z,18.36
2018-07-04T00:59:04.360Z,18.38
2018-07-04T01:01:44.606Z,18.40
2018-07-04T01:04:25.332Z,18.46
2018-07-04T01:07:05.417Z,18.50
2018-07-04T01:09:45.066Z,18.48
2018-07-04T01:12:25.718Z,18.45
2018-07-04T01:15:05.374Z,18.41
2018-07-04T01:17:46.216Z,18.33
2018-07-04T01:20:25.902Z,18.24
2018-07-04T01:23:06.682Z,18.25
2018-07-04T01:25:46.204Z,18.32
2018-07-04T01:28:26.450Z,18.26
2018-07-04T01:31:07.142Z,18.23
2018-07-04T01:33:46.930Z,18.18
2018-07-04T01:36:27.157Z,18.10
2018-07-04T01:39:07.346Z,18.06
2018-07-04T01:41:47.484Z,18.15
2018-07-04T01:44:27.867Z,18.17
2018-07-04T01:47:08.749Z,18.19
2018-07-04T01:49:49.059Z,18.19
2018-07-04T01:52:29.119Z,18.22
2018-07-04T01:55:09.189Z,18.23
2018-07-04T01:57:49.398Z,18.29
2018-07-04T02:00:29.740Z,18.28
2018-07-04T02:03:10.170Z,18.27
2018-07-04T02:05:50.365Z,18.30
2018-07-04T02:08:31.979Z,18.24
2018-07-04T02:11:10.302Z,18.07
2018-07-04T02:13:50.561Z,18.02
2018-07-04T02:16:31.373Z,18.10
2018-07-04T02:19:11.649Z,18.05
2018-07-04T02:21:51.825Z,18.07
2018-07-04T02:24:31.880Z,18.19
2018-07-04T02:27:11.383Z,18.30
2018-07-04T02:29:51.604Z,18.29
2018-07-04T02:32:31.761Z,18.31
2018-07-04T02:35:12.513Z,18.30
2018-07-04T02:37:52.264Z,18.29
2018-07-04T02:40:32.478Z,18.33
2018-07-04T02:43:13.211Z,18.39
2018-07-04T02:45:53.452Z,18.39
2018-07-04T02:48:33.862Z,18.40
2018-07-04T02:51:13.361Z,18.43
2018-07-04T02:53:54.501Z,18.43
2018-07-04T02:56:34.071Z,18.46
2018-07-04T02:59:17.032Z,18.46
2018-07-04T03:01:57.029Z,18.50
2018-07-04T03:04:37.861Z,18.52
2018-07-04T03:07:17.477Z,18.51
2018-07-04T03:09:58.248Z,18.59
2018-07-04T03:12:37.988Z,18.63
2018-07-04T03:15:18.161Z,18.66
2018-07-04T03:17:58.264Z,18.66
2018-07-04T03:20:39.058Z,18.64
2018-07-04T03:23:18.650Z,18.53
2018-07-04T03:25:59.127Z,18.57
2018-07-04T03:28:39.829Z,18.62
2018-07-04T03:31:20.016Z,18.67
2018-07-04T03:34:00.213Z,18.75
2018-07-04T03:36:39.659Z,18.82
2018-07-04T03:39:20.424Z,18.83
2018-07-04T03:42:00.582Z,18.85
2018-07-04T03:44:40.211Z,18.89
2018-07-04T03:47:20.417Z,18.91
2018-07-04T03:50:01.192Z,18.92
2018-07-04T03:52:41.440Z,18.95
2018-07-04T03:55:21.644Z,18.97
2018-07-04T03:58:01.370Z,18.98
2018-07-04T04:00:41.613Z,19.05
2018-07-04T04:03:21.741Z,19.04
2018-07-04T04:06:02.492Z,19.09
2018-07-04T04:08:53.014Z,19.24
2018-07-04T04:11:33.352Z,19.22
2018-07-04T04:14:13.000Z,19.28
2018-07-04T04:16:53.786Z,19.33
2018-07-04T04:19:34.013Z,19.32
2018-07-04T04:22:14.727Z,19.40
2018-07-04T04:24:54.590Z,19.53
2018-07-04T04:27:34.617Z,19.55
2018-07-04T04:30:15.177Z,19.44
2018-07-04T04:32:54.773Z,19.40
2018-07-04T04:35:35.120Z,19.45
2018-07-04T04:38:15.874Z,19.54
2018-07-04T04:40:56.164Z,19.62
2018-07-04T04:43:36.873Z,19.64
2018-07-04T04:46:17.062Z,19.65
2018-07-04T04:48:57.267Z,19.69
2018-07-04T04:51:37.515Z,19.72
2018-07-04T04:54:17.098Z,19.80
2018-07-04T04:56:57.297Z,19.90
2018-07-04T04:59:37.917Z,20.01
2018-07-04T05:02:18.112Z,20.11
2018-07-04T05:04:57.765Z,20.20
2018-07-04T05:10:30.154Z,20.24
2018-07-04T05:13:10.342Z,20.26
2018-07-04T05:15:50.578Z,20.36
2018-07-04T05:18:30.712Z,20.45
2018-07-04T05:21:10.297Z,20.57
2018-07-04T05:23:52.022Z,20.69
2018-07-04T05:26:32.154Z,20.80
2018-07-04T05:29:11.705Z,20.83
2018-07-04T05:34:44.142Z,21.06
2018-07-04T05:37:24.511Z,21.18
2018-07-04T05:40:04.722Z,21.27
2018-07-04T05:42:44.429Z,21.34
2018-07-04T05:45:24.657Z,21.43
2018-07-04T05:48:05.511Z,21.48
2018-07-04T05:50:46.062Z,21.44
2018-07-04T05:53:26.306Z,21.60
2018-07-04T05:56:06.189Z,21.79
2018-07-04T05:58:50.241Z,21.91
2018-07-04T06:01:30.370Z,22.05
2018-07-04T06:04:10.064Z,22.19
2018-07-04T06:06:50.293Z,22.32
2018-07-04T06:09:31.093Z,22.46
2018-07-04T06:12:10.734Z,22.58
2018-07-04T06:14:50.837Z,22.64
2018-07-04T06:17:32.415Z,22.75
2018-07-04T06:20:11.945Z,22.85
2018-07-04T06:22:52.102Z,22.96
2018-07-04T06:25:32.472Z,23.07
2018-07-04T06:28:12.556Z,23.17
2018-07-04T06:30:53.180Z,23.25
2018-07-04T06:33:32.720Z,23.36
2018-07-04T06:36:13.553Z,23.44
2018-07-04T06:38:40.755Z,23.51
2018-07-04T06:41:08.551Z,23.61
2018-07-04T06:43:36.322Z,23.68
2018-07-04T06:46:04.107Z,23.72
2018-07-04T06:48:34.469Z,23.81
2018-07-04T06:51:01.681Z,23.85
2018-07-04T06:53:30.053Z,23.93
2018-07-04T06:55:57.260Z,24.00
2018-07-04T06:58:25.034Z,23.99
2018-07-04T07:00:53.410Z,24.11
2018-07-04T07:03:33.630Z,24.20
2018-07-04T07:06:13.827Z,24.22
2018-07-04T07:08:53.570Z,24.35
2018-07-04T07:11:34.383Z,24.32
2018-07-04T07:14:15.636Z,24.42
2018-07-04T07:16:55.695Z,24.44
2018-07-04T07:19:35.900Z,24.48
2018-07-04T07:22:16.174Z,24.37
2018-07-04T07:24:55.870Z,24.23
2018-07-04T07:27:36.185Z,24.17
2018-07-04T07:30:16.298Z,24.22
2018-07-04T07:32:57.011Z,24.27
2018-07-04T07:35:36.597Z,24.26
2018-07-04T07:38:17.247Z,24.17
2018-07-04T07:40:56.905Z,24.24
2018-07-04T07:46:28.781Z,24.22
2018-07-04T07:49:09.929Z,24.25
2018-07-04T07:51:50.124Z,24.33
2018-07-04T07:54:30.348Z,24.41
2018-07-04T07:57:16.571Z,24.48
2018-07-04T07:59:56.731Z,24.58
2018-07-04T08:02:37.008Z,24.67
2018-07-04T08:05:22.104Z,24.69
2018-07-04T08:08:01.825Z,24.75
2018-07-04T08:10:42.531Z,24.80
2018-07-04T08:13:22.210Z,24.87
2018-07-04T08:16:03.061Z,24.98
2018-07-04T08:18:43.248Z,25.09
2018-07-04T08:21:23.334Z,25.14
2018-07-04T08:24:03.448Z,25.21
2018-07-04T08:26:43.615Z,25.22
2018-07-04T08:29:23.917Z,25.30
2018-07-04T08:32:04.058Z,25.39
2018-07-04T08:34:44.251Z,25.55
2018-07-04T08:37:24.472Z,25.57
2018-07-04T08:40:04.028Z,25.58
2018-07-04T08:42:44.778Z,25.61
2018-07-04T08:45:24.736Z,25.70
2018-07-04T08:48:04.290Z,25.82
2018-07-04T08:50:45.070Z,25.80
2018-07-04T08:53:24.872Z,25.86
2018-07-04T08:56:04.912Z,25.98
2018-07-04T08:58:45.826Z,26.09
2018-07-04T09:01:25.669Z,26.15
2018-07-04T09:04:05.908Z,26.12
2018-07-04T09:06:46.069Z,26.19
2018-07-04T09:09:26.131Z,26.34
2018-07-04T09:12:06.396Z,26.44
2018-07-04T09:14:46.686Z,26.48
2018-07-04T09:17:27.985Z,26.52
2018-07-04T09:20:08.037Z,26.53
2018-07-04T09:22:48.122Z,26.56
2018-07-04T09:25:27.736Z,26.61
2018-07-04T09:28:08.417Z,26.67
2018-07-04T09:30:48.673Z,26.74
2018-07-04T09:33:35.690Z,26.74
2018-07-04T09:36:15.884Z,26.75
2018-07-04T09:38:55.914Z,26.87
2018-07-04T09:41:35.567Z,26.86
2018-07-04T09:44:17.209Z,26.94
2018-07-04T09:46:57.263Z,26.93
2018-07-04T09:49:37.868Z,26.98
2018-07-04T09:52:18.048Z,27.01
2018-07-04T09:54:57.762Z,27.07
2018-07-04T09:57:38.471Z,27.13
2018-07-04T10:00:18.709Z,27.27
2018-07-04T10:02:58.428Z,27.32
2018-07-04T10:05:39.531Z,27.35
2018-07-04T10:08:19.590Z,27.41
2018-07-04T10:10:59.168Z,27.45
2018-07-04T10:13:39.628Z,27.49
2018-07-04T10:16:19.774Z,27.52
2018-07-04T10:19:00.001Z,27.61
2018-07-04T10:21:40.653Z,27.59
2018-07-04T10:24:20.766Z,27.74
2018-07-04T10:27:00.297Z,27.78
2018-07-04T10:29:41.147Z,27.81
2018-07-04T10:32:22.131Z,27.74
2018-07-04T10:35:02.357Z,27.83
2018-07-04T10:37:43.525Z,27.90
2018-07-04T10:40:25.161Z,27.94
2018-07-04T10:43:04.292Z,28.02
2018-07-04T10:45:44.414Z,27.98
2018-07-04T10:48:25.187Z,28.04
2018-07-04T10:51:05.514Z,28.08
2018-07-04T10:53:45.874Z,28.04
2018-07-04T10:56:26.001Z,28.06
2018-07-04T10:59:06.331Z,28.17
2018-07-04T11:01:46.578Z,28.14
2018-07-04T11:04:26.553Z,28.22
2018-07-04T11:07:06.569Z,28.26
2018-07-04T11:09:46.185Z,28.35
2018-07-04T11:12:26.791Z,28.27
2018-07-04T11:15:07.061Z,28.35
2018-07-04T11:17:47.277Z,28.45
2018-07-04T11:23:22.513Z,28.69
2018-07-04T11:26:02.286Z,28.76
2018-07-04T11:28:43.068Z,28.78
2018-07-04T11:31:22.775Z,28.83
2018-07-04T11:34:03.883Z,28.82
2018-07-04T11:36:43.605Z,28.98
2018-07-04T11:39:24.444Z,29.10
2018-07-04T11:42:04.615Z,29.17
2018-07-04T11:44:44.426Z,29.13
2018-07-04T11:47:12.001Z,29.19
2018-07-04T11:49:40.542Z,29.25
2018-07-04T11:52:07.698Z,29.33
2018-07-04T11:54:38.303Z,29.43
2018-07-04T11:57:06.282Z,29.50
2018-07-04T12:02:22.585Z,29.32
2018-07-04T12:05:03.583Z,29.27
2018-07-04T12:07:31.185Z,29.27
2018-07-04T12:09:58.971Z,29.28
2018-07-04T12:12:26.751Z,29.35
2018-07-04T12:14:54.545Z,29.49
2018-07-04T12:17:21.740Z,29.70
2018-07-04T12:19:50.121Z,29.92
2018-07-04T12:22:17.894Z,30.16
2018-07-04T12:24:51.818Z,30.36
2018-07-04T12:27:19.053Z,30.53
2018-07-04T12:29:47.422Z,30.57
2018-07-04T12:32:15.210Z,30.59
2018-07-04T12:34:43.116Z,30.55
2018-07-04T12:37:10.915Z,30.70
2018-07-04T12:39:38.722Z,30.82
2018-07-04T12:42:05.938Z,30.77
2018-07-04T12:44:33.718Z,30.78
2018-07-04T12:47:02.112Z,30.90
2018-07-04T12:49:29.866Z,30.87
2018-07-04T12:51:57.645Z,30.76
2018-07-04T12:54:26.075Z,30.90
2018-07-04T12:57:06.443Z,31.04
2018-07-04T12:59:46.115Z,31.16
2018-07-04T13:02:26.882Z,31.18
2018-07-04T13:05:08.704Z,31.14
2018-07-04T13:07:48.999Z,31.24
2018-07-04T13:10:28.652Z,31.22
2018-07-04T13:13:09.577Z,31.35
2018-07-04T13:15:49.621Z,31.35
2018-07-04T13:18:29.791Z,31.41
2018-07-04T13:21:09.981Z,31.47
2018-07-04T13:23:49.638Z,31.61
2018-07-04T13:26:29.903Z,31.59
2018-07-04T13:29:10.721Z,31.62
2018-07-04T13:31:50.878Z,31.79
2018-07-04T13:34:30.980Z,31.84
2018-07-04T13:37:11.309Z,31.87
2018-07-04T13:39:51.559Z,31.95
2018-07-04T13:42:31.287Z,31.58
2018-07-04T13:45:11.863Z,31.59
2018-07-04T13:47:52.044Z,31.63
2018-07-04T13:50:38.708Z,31.60
2018-07-04T13:53:14.548Z,31.67
2018-07-04T13:55:54.500Z,31.85
2018-07-04T13:58:34.725Z,32.07
2018-07-04T14:01:14.913Z,32.15
2018-07-04T14:03:55.147Z,32.26
2018-07-04T14:06:34.880Z,32.41
2018-07-04T14:09:15.762Z,32.31
2018-07-04T14:11:55.351Z,32.34
2018-07-04T14:14:35.520Z,32.44
2018-07-04T14:20:08.389Z,32.55
2018-07-04T14:22:48.471Z,32.67
2018-07-04T14:25:28.521Z,32.66
2018-07-04T14:28:08.018Z,32.62
2018-07-04T14:30:48.714Z,32.62
2018-07-04T14:33:28.323Z,32.83
2018-07-04T14:36:09.127Z,32.82
2018-07-04T14:38:49.418Z,32.71
2018-07-04T14:41:29.757Z,33.08
2018-07-04T14:44:10.386Z,33.41
2018-07-04T14:46:50.095Z,33.45
2018-07-04T14:49:30.627Z,33.06
2018-07-04T14:52:10.234Z,32.77
2018-07-04T14:54:50.430Z,32.40
2018-07-04T14:57:31.258Z,32.11
2018-07-04T15:00:11.397Z,32.08
2018-07-04T15:02:51.492Z,32.33
2018-07-04T15:05:31.574Z,32.49
2018-07-04T15:08:11.155Z,32.49
2018-07-04T15:10:51.979Z,33.12
2018-07-04T15:13:32.055Z,32.69
2018-07-04T15:16:11.674Z,32.99
2018-07-04T15:18:59.364Z,32.41
2018-07-04T15:21:39.461Z,32.24
2018-07-04T15:24:19.113Z,32.35
2018-07-04T15:26:59.735Z,32.63
2018-07-04T15:29:42.651Z,33.04
2018-07-04T15:32:26.688Z,33.46
2018-07-04T15:35:06.483Z,33.84
2018-07-04T15:37:46.337Z,34.08
2018-07-04T15:40:28.374Z,34.31
2018-07-04T15:43:07.890Z,34.60
2018-07-04T15:45:48.510Z,34.30
2018-07-04T15:48:28.841Z,33.69
2018-07-04T15:51:08.456Z,33.18
2018-07-04T15:53:49.182Z,33.28
2018-07-04T15:56:32.375Z,32.69
2018-07-04T15:59:12.759Z,32.49
2018-07-04T16:01:52.985Z,32.78
2018-07-04T16:04:32.975Z,32.72
2018-07-04T16:07:13.051Z,32.77
2018-07-04T16:09:53.551Z,32.72
2018-07-04T16:12:32.923Z,33.18
2018-07-04T16:15:21.362Z,33.23
2018-07-04T16:18:01.869Z,33.33
2018-07-04T16:20:42.036Z,33.77
2018-07-04T16:23:21.776Z,33.70
2018-07-04T16:26:05.193Z,33.94
2018-07-04T16:28:44.905Z,34.20
2018-07-04T16:31:28.165Z,34.28
2018-07-04T16:34:08.886Z,34.07
2018-07-04T16:36:48.485Z,33.40
2018-07-04T16:39:28.738Z,32.92
2018-07-04T16:42:09.668Z,33.05
2018-07-04T16:44:49.940Z,33.32
2018-07-04T16:47:30.489Z,33.58
2018-07-04T16:50:11.289Z,33.00
2018-07-04T16:52:51.419Z,32.62
2018-07-04T16:55:31.424Z,32.71
2018-07-04T16:58:11.057Z,32.02
2018-07-04T17:00:51.169Z,31.88
2018-07-04T17:03:31.955Z,32.25
2018-07-04T17:06:12.119Z,32.21
2018-07-04T17:08:52.305Z,31.68
2018-07-04T17:11:31.957Z,30.99
2018-07-04T17:14:12.110Z,30.31
2018-07-04T17:16:52.951Z,29.66
2018-07-04T17:19:32.369Z,29.18
2018-07-04T17:22:12.514Z,28.73
2018-07-04T17:24:53.523Z,28.48
2018-07-04T17:27:33.467Z,28.35
2018-07-04T17:30:13.565Z,28.20
2018-07-04T17:32:53.213Z,28.07
2018-07-04T17:35:34.235Z,27.87
2018-07-04T17:38:13.937Z,27.72
2018-07-04T17:40:54.587Z,27.47
2018-07-04T17:43:34.876Z,27.10
2018-07-04T17:46:14.316Z,26.78
2018-07-04T17:48:54.460Z,26.64
2018-07-04T17:51:34.560Z,26.45
2018-07-04T17:54:14.672Z,26.30
2018-07-04T17:56:55.363Z,26.19
2018-07-04T17:59:35.502Z,25.97
2018-07-04T18:02:15.687Z,25.83
2018-07-04T18:04:59.044Z,25.67
2018-07-04T18:07:38.982Z,25.58
2018-07-04T18:10:19.170Z,25.56
2018-07-04T18:12:58.800Z,25.51
2018-07-04T18:15:39.664Z,25.44
2018-07-04T18:18:19.832Z,25.39
2018-07-04T18:21:00.129Z,25.34
2018-07-04T18:23:40.325Z,25.24
2018-07-04T18:26:20.522Z,25.19
2018-07-04T18:29:00.973Z,25.10
2018-07-04T18:31:41.225Z,24.99
2018-07-04T18:34:22.621Z,24.91
2018-07-04T18:37:03.722Z,24.82
2018-07-04T18:39:44.235Z,24.74
2018-07-04T18:42:24.568Z,24.65
2018-07-04T18:45:04.882Z,24.63
2018-07-04T18:47:45.178Z,24.55
2018-07-04T18:50:25.399Z,24.43
2018-07-04T18:53:05.388Z,24.35
2018-07-04T18:55:47.230Z,24.34
2018-07-04T18:58:28.198Z,24.31
2018-07-04T19:01:13.231Z,24.26
2018-07-04T19:03:56.860Z,24.23
2018-07-04T19:06:37.307Z,24.15
2018-07-04T19:11:57.332Z,24.04
2018-07-04T19:14:46.827Z,23.97
2018-07-04T19:17:26.603Z,23.84
2018-07-04T19:20:07.220Z,23.78
2018-07-04T19:22:47.477Z,23.73
2018-07-04T19:25:27.082Z,23.67
2018-07-04T19:28:13.115Z,23.62
2018-07-04T19:30:51.820Z,23.55
2018-07-04T19:33:32.056Z,23.46
2018-07-04T19:36:12.194Z,23.42
2018-07-04T19:38:59.434Z,23.37
2018-07-04T19:41:41.427Z,23.34
2018-07-04T19:44:22.189Z,23.23
2018-07-04T19:47:02.759Z,23.22
2018-07-04T19:49:50.626Z,23.21
2018-07-04T19:52:28.929Z,23.18
2018-07-04T19:55:09.140Z,23.14
2018-07-04T19:57:49.746Z,23.04
2018-07-04T20:00:29.948Z,22.98
2018-07-04T20:03:10.061Z,22.94
2018-07-04T20:05:50.297Z,22.88
2018-07-04T20:08:30.531Z,22.83
2018-07-04T20:11:10.909Z,22.82
2018-07-04T20:13:50.300Z,22.79
2018-07-04T20:16:42.547Z,22.76
2018-07-04T20:19:26.509Z,22.69
2018-07-04T20:22:06.594Z,22.67
2018-07-04T20:24:50.986Z,22.64
2018-07-04T20:27:31.839Z,22.59
2018-07-04T20:30:12.068Z,22.53
2018-07-04T20:32:52.261Z,22.46
2018-07-04T20:35:32.341Z,22.38
2018-07-04T20:38:12.520Z,22.32
2018-07-04T20:43:45.515Z,22.25
2018-07-04T20:46:25.732Z,22.25
2018-07-04T20:49:18.938Z,22.20
2018-07-04T20:51:59.544Z,22.13
2018-07-04T20:54:40.371Z,22.11
2018-07-04T20:57:20.730Z,22.10
2018-07-04T21:02:50.447Z,22.02
2018-07-04T21:05:30.631Z,21.95
2018-07-04T21:08:10.283Z,21.95
2018-07-04T21:10:51.181Z,21.90
2018-07-04T21:16:32.457Z,21.79
2018-07-04T21:19:12.659Z,21.76
2018-07-04T21:21:52.346Z,21.77
2018-07-04T21:24:33.127Z,21.75
2018-07-04T21:27:13.597Z,21.73
2018-07-04T21:29:53.709Z,21.70
2018-07-04T21:32:34.020Z,21.63
2018-07-04T21:35:14.569Z,21.63
2018-07-04T21:37:54.729Z,21.63
2018-07-04T21:40:34.948Z,21.64
2018-07-04T21:43:14.478Z,21.56
2018-07-04T21:45:54.524Z,21.51
2018-07-04T21:48:35.310Z,21.50
2018-07-04T21:51:15.013Z,21.47
2018-07-04T21:53:56.703Z,21.42
2018-07-04T21:56:36.896Z,21.34
2018-07-04T21:59:17.121Z,21.34
2018-07-04T22:01:57.360Z,21.33
2018-07-04T22:04:37.047Z,21.25
2018-07-04T22:07:17.182Z,21.22
2018-07-04T22:09:57.394Z,21.21
2018-07-04T22:12:38.254Z,21.12
2018-07-04T22:15:18.000Z,21.07
2018-07-04T22:17:58.381Z,21.09
2018-07-04T22:20:39.013Z,21.15
2018-07-04T22:23:19.142Z,21.23
2018-07-04T22:25:59.237Z,21.20
2018-07-04T22:28:39.436Z,21.13
2018-07-04T22:31:19.046Z,21.11
2018-07-04T22:33:59.205Z,21.11
2018-07-04T22:36:39.695Z,21.17
2018-07-04T22:39:19.890Z,21.24
2018-07-04T22:42:00.797Z,21.30
2018-07-04T22:44:40.810Z,21.31
2018-07-04T22:47:21.160Z,21.25
2018-07-04T22:50:01.351Z,21.21
2018-07-04T22:52:41.690Z,21.12
2018-07-04T22:55:21.441Z,20.96
2018-07-04T22:58:01.399Z,20.93
2018-07-04T23:00:42.156Z,20.95
2018-07-04T23:03:22.245Z,20.96
2018-07-04T23:06:01.911Z,20.89
2018-07-04T23:08:42.503Z,20.76
2018-07-04T23:11:22.651Z,20.57
2018-07-04T23:14:06.442Z,20.41
2018-07-04T23:16:46.980Z,20.43
2018-07-04T23:19:27.129Z,20.45
2018-07-04T23:22:06.616Z,20.41
2018-07-04T23:24:46.804Z,20.29
2018-07-04T23:27:27.485Z,20.18
2018-07-04T23:30:07.666Z,20.18
2018-07-04T23:32:47.936Z,20.18
2018-07-04T23:35:28.078Z,20.21
2018-07-04T23:38:07.698Z,20.09
2018-07-04T23:40:48.269Z,20.03
2018-07-04T23:43:28.606Z,20.00
2018-07-04T23:46:08.767Z,19.98
2018-07-04T23:48:48.396Z,19.90
2018-07-04T23:51:28.369Z,19.91
2018-07-04T23:54:09.197Z,19.91
2018-07-04T23:56:49.765Z,19.88
2018-07-04T23:59:30.409Z,19.73
